• Join FlightAware (Why Join?)
  • Login
  • US Flag 
03:08AM EDT


 

Airport Tracker/Info


-or-


 

Live Flight TrackerFlight Track Log ✈ UAL5669 ✈ 31-Mar-2014 ✈ CYYZ - KEWR

Flight Track Log - Related Links

Times and Time Zones

All times are in EDT time to prevent confusion due to time zone crossing. See the UAL5669 flight status page for this flight to view local times or setup timezone preferences in your user account.

Time Position Orientation Groundspeed Altitude Reporting Facility
EDT Latitude Longitude Course Direction KTS MPH feet Rate Location/Type
01:43PM 41.9167 -76.8500 24° Northeast 380 437 20,400  Level Toronto Center
01:44PM 42.0000 -76.8000 24° Northeast 390 449 19,200 -1,320 Descending Toronto Center
01:45PM 42.1167 -76.7500 18° North 390 449 17,800 -1,500 Descending Toronto Center
01:46PM 42.2000 -76.6833 31° Northeast 390 449 16,300 -1,320 Descending Toronto Center
01:56PM 43.7000 -79.5167 115° Southeast 180 207 3,700 -1,140 Descending Toronto Center
01:57PM 40.6925 -74.1687 143° Southeast  Level Estimated
01:57PM 43.7167 -79.4500 71° East 200 230 4,100  Level Toronto Center
01:58PM 40.6925 -74.1687 143° Southeast  Level Estimated
01:58PM 43.7167 -79.3500 90° East 230 265 6,000  Level Toronto Center
01:59PM 40.6925 -74.1687 143° Southeast  Level Estimated
01:59PM 43.6667 -79.2833 136° Southeast 260 299 7,200  Level Toronto Center
02:00PM 40.6925 -74.1687 143° Southeast  Level Estimated
02:00PM 43.6000 -79.2000 138° Southeast 280 322 9,900  Level Toronto Center
02:01PM 43.6293 -79.5346 115° Southeast  Level Estimated
02:01PM 43.5500 -79.1000 125° Southeast 310 357 11,500  Level Toronto Center
02:02PM 43.4833 -79.0167 138° Southeast 350 403 13,500 2,280 Climbing Toronto Center
02:03PM 43.4167 -78.9000 128° Southeast 360 414 16,100 2,220 Climbing Toronto Center
02:04PM 43.3667 -78.7833 120° Southeast 360 414 18,000 1,620 Climbing Toronto Center
02:05PM 43.3100 -78.6900 130° Southeast 371 427 19,400 1,200 Climbing Cleveland Center
02:06PM 43.2333 -78.5333 124° Southeast 400 460 20,500 1,140 Climbing Toronto Center
02:07PM 43.1667 -78.4000 124° Southeast 420 483 21,700 1,380 Climbing Toronto Center
02:08PM 43.1128 -78.2983 126° Southeast 422 486 23,400 1,620 Climbing Cleveland Center
02:09PM 43.0544 -78.1606 120° Southeast 421 484 25,200 1,680 Climbing Cleveland Center
02:10PM 43.0194 -78.0106 108° East 416 479 26,900 840 Climbing Cleveland Center
02:11PM 42.9711 -77.8233 109° East 426 490 27,000  Climbing Cleveland Center
02:12PM 42.9275 -77.6511 109° East 464 534 27,000  Level Cleveland Center
02:13PM 42.8814 -77.4744 110° East 483 556 27,000  Level Cleveland Center
02:14PM 42.8358 -77.2975 109° East 487 560 27,000  Level Cleveland Center
02:15PM 42.7903 -77.1217 109° East 487 560 27,000  Level Cleveland Center
02:16PM 42.7442 -76.9481 110° East 487 560 27,000  Level Cleveland Center
02:17PM 42.7261 -76.8778 109° East 486 559 27,000  Level Boston Center
02:18PM 42.6719 -76.6711 110° East 487 560 27,000  Level Boston Center
02:19PM 42.6064 -76.5075 119° Southeast 490 564 27,000  Level Boston Center
02:20PM 42.5347 -76.3478 121° Southeast 493 567 27,000 -660 Level Boston Center
02:21PM 42.4708 -76.2058 121° Southeast 490 564 25,700 -1,320 Descending Boston Center
02:22PM 42.4036 -76.0561 121° Southeast 472 543 24,300 -1,680 Descending Boston Center
02:23PM 42.3236 -75.8825 122° Southeast 461 531 22,200 -1,800 Descending Boston Center
02:24PM 42.2689 -75.7617 121° Southeast 457 526 20,700 -1,680 Descending Boston Center
02:25PM 42.2064 -75.6258 122° Southeast 433 498 18,900 -1,380 Descending Boston Center
02:26PM 42.1433 -75.4892 122° Southeast 430 495 18,000 -480 Descending Boston Center
02:27PM 42.0692 -75.3306 122° Southeast 420 483 18,000  Level Boston Center
02:28PM 42.0144 -75.1881 117° Southeast 428 493 18,000  Level Boston Center
02:29PM 41.9578 -75.0378 117° Southeast 428 493 18,000 -300 Level Boston Center
02:30PM 41.9056 -74.8975 117° Southeast 425 489 17,400 -1,080 Descending Boston Center
02:31PM 41.8528 -74.7625 118° Southeast 409 471 15,900 -1,200 Descending Boston Center
02:32PM 41.8025 -74.6297 117° Southeast 402 463 15,000 -1,440 Descending Boston Center
02:33PM 41.7483 -74.4906 118° Southeast 394 453 13,000 -1,860 Descending Boston Center
02:34PM 41.7000 -74.3686 118° Southeast 368 423 11,200 -1,500 Descending Boston Center
02:35PM 41.6164 -74.3111 153° Southeast 345 397 10,000 -1,680 Descending Boston Center
02:36PM 41.5264 -74.3428 195° South 314 361 7,800 -1,440 Descending Boston Center
02:37PM 41.4450 -74.3778 198° South 311 358 7,100 -360 Descending Boston Center
02:38PM 41.3619 -74.4136 198° South 312 359 7,100 -60 Level Boston Center
02:39PM 41.2853 -74.4458 198° South 294 338 7,000 -300 Descending Boston Center
02:41PM 41.1833 -74.4333 175° South 278 320 6,400 -480 Descending New York TRACON
02:42PM 41.1333 -74.3667 135° Southeast 262 302 5,800 -660 Descending New York TRACON
02:43PM 41.0667 -74.4167 209° Southwest 287 330 5,100 -420 Descending New York TRACON
02:44PM 41.0333 -74.5000 242° Southwest 271 312 5,000  Descending New York TRACON
02:45PM 40.9833 -74.5833 232° Southwest 280 322 5,100  Climbing New York TRACON
02:46PM 40.9167 -74.6000 191° South 281 323 5,100  Level New York TRACON
02:47PM 40.8500 -74.6167 191° South 271 312 5,100  Level New York TRACON
02:48PM 40.7667 -74.6167 180° South 267 307 5,100  Level New York TRACON
02:49PM 40.6833 -74.6167 180° South 276 318 5,100  Level New York TRACON
02:50PM 40.6167 -74.6167 180° South 265 305 5,100  Level New York TRACON
02:51PM 40.5500 -74.6333 191° South 268 308 5,100 -60 Level New York TRACON
02:52PM 40.4667 -74.6167 171° South 243 280 5,000 -60 Descending New York TRACON
02:53PM 40.4000 -74.6167 180° South 245 282 5,000  Level New York TRACON
02:54PM 40.3333 -74.6000 169° South 246 283 5,000  Level New York TRACON
02:55PM 40.3000 -74.5500 131° Southeast 215 247 5,000  Level New York TRACON
02:56PM 40.3167 -74.4833 72° East 178 205 5,100 -360 Climbing New York TRACON
02:56PM 40.3333 -74.4333 66° East 158 182 4,400 -900 Descending New York TRACON
02:57PM 40.3500 -74.3833 66° East 169 194 3,400 -720 Descending New York TRACON
02:58PM 40.4000 -74.3500 27° Northeast 176 203 3,000 -240 Descending New York TRACON
02:59PM 40.4333 -74.3333 21° North 173 199 3,000  Level New York TRACON
03:00PM 40.4833 -74.3000 27° Northeast 175 201 3,100  Climbing New York TRACON
03:01PM 40.5167 -74.2833 21° North 158 182 3,000 -120 Descending New York TRACON
03:02PM 40.5500 -74.2500 37° Northeast 174 200 2,900 -540 Descending New York TRACON
03:03PM 40.6000 -74.2167 27° Northeast 159 183 1,900 -900 Descending New York TRACON
03:04PM 40.6333 -74.2000 21° North 133 153 1,200 -780 Descending New York TRACON
03:05PM 40.6667 -74.1833 21° North 127 146 400 -780 Descending New York TRACON